Time,TemperatureF,DewpointF,PressureIn,WindDirection,WindDirectionDegrees,WindSpeedMPH,WindSpeedGustMPH,Humidity,HourlyPrecipIn,Conditions,Clouds,dailyrainin,SoftwareType,DateUTC
2013-03-31 00:01:00,53.0,47.0,29.88,WSW,244,6.0,12.0,79,0.00,,,0.00,,2013-03-31 07:01:00,
2013-03-31 00:12:00,53.0,47.0,29.88,WSW,244,6.0,12.0,79,0.00,,,0.00,,2013-03-31 07:12:00,
2013-03-31 00:21:00,52.0,46.0,29.88,WSW,254,10.0,14.0,80,0.00,,,0.00,,2013-03-31 07:21:00,
2013-03-31 00:32:00,52.0,46.0,29.88,WSW,254,10.0,14.0,80,0.00,,,0.00,,2013-03-31 07:32:00,
2013-03-31 00:42:00,52.0,46.0,29.88,WSW,254,10.0,14.0,80,0.00,,,0.00,,2013-03-31 07:42:00,
2013-03-31 00:52:00,51.0,45.0,29.89,WSW,242,7.0,12.0,81,0.00,,,0.00,,2013-03-31 07:52:00,
2013-03-31 01:01:00,51.0,47.0,29.89,WSW,251,3.0,11.0,85,0.00,,,0.00,,2013-03-31 08:01:00,
2013-03-31 01:12:00,51.0,47.0,29.89,WSW,251,3.0,11.0,85,0.00,,,0.00,,2013-03-31 08:12:00,
2013-03-31 01:21:00,51.0,47.0,29.89,WSW,251,3.0,11.0,85,0.00,,,0.00,,2013-03-31 08:21:00,
2013-03-31 01:32:00,51.0,47.0,29.89,WSW,251,3.0,11.0,85,0.00,,,0.00,,2013-03-31 08:32:00,
2013-03-31 01:41:00,51.0,47.0,29.89,WSW,251,3.0,11.0,85,0.00,,,0.00,,2013-03-31 08:41:00,
2013-03-31 01:52:00,50.0,47.0,29.88,West,259,5.0,9.0,88,0.00,,,0.00,,2013-03-31 08:52:00,
2013-03-31 02:01:00,50.0,46.0,29.87,West,261,1.0,8.0,87,0.00,,,0.00,,2013-03-31 09:01:00,
2013-03-31 02:12:00,50.0,46.0,29.87,West,261,1.0,8.0,87,0.00,,,0.00,,2013-03-31 09:12:00,
2013-03-31 02:21:00,51.0,48.0,29.88,West,266,6.0,14.0,90,0.00,,,0.00,,2013-03-31 09:21:00,
2013-03-31 02:32:00,51.0,48.0,29.88,West,266,6.0,14.0,90,0.00,,,0.00,,2013-03-31 09:32:00,
2013-03-31 02:42:00,51.0,48.0,29.88,West,266,6.0,14.0,90,0.00,,,0.00,,2013-03-31 09:42:00,
2013-03-31 02:53:00,50.0,48.0,29.87,West,273,11.0,14.0,92,0.00,,,0.00,,2013-03-31 09:53:00,
2013-03-31 03:02:00,50.0,48.0,29.87,West,273,11.0,14.0,92,0.00,,,0.00,,2013-03-31 10:02:00,
2013-03-31 03:12:00,50.0,48.0,29.87,West,273,11.0,14.0,92,0.00,,,0.00,,2013-03-31 10:12:00,
2013-03-31 03:22:00,50.0,48.0,29.86,WSW,243,5.0,10.0,92,0.00,,,0.00,,2013-03-31 10:22:00,
2013-03-31 03:33:00,50.0,48.0,29.86,WSW,243,5.0,10.0,92,0.00,,,0.00,,2013-03-31 10:33:00,
2013-03-31 03:42:00,50.0,48.0,29.86,WSW,243,5.0,10.0,92,0.00,,,0.00,,2013-03-31 10:42:00,
2013-03-31 03:53:00,51.0,49.0,29.87,West,266,7.0,14.0,93,0.00,,,0.00,,2013-03-31 10:53:00,
2013-03-31 04:02:00,50.0,48.0,29.87,WNW,295,3.0,15.0,93,0.00,,,0.00,,2013-03-31 11:02:00,
2013-03-31 04:12:00,50.0,48.0,29.87,WNW,295,3.0,15.0,93,0.00,,,0.00,,2013-03-31 11:12:00,
2013-03-31 04:22:00,50.0,48.0,29.86,West,276,6.0,8.0,94,0.00,,,0.00,,2013-03-31 11:22:00,
2013-03-31 04:32:00,50.0,48.0,29.86,West,276,6.0,8.0,94,0.00,,,0.00,,2013-03-31 11:32:00,
2013-03-31 04:42:00,50.0,48.0,29.86,West,276,6.0,8.0,94,0.00,,,0.00,,2013-03-31 11:42:00,
2013-03-31 04:52:00,51.0,50.0,29.87,West,272,2.0,9.0,95,0.00,,,0.00,,2013-03-31 11:52:00,
2013-03-31 05:02:00,50.0,48.0,29.86,WNW,286,6.0,10.0,94,0.00,,,0.00,,2013-03-31 12:02:00,
2013-03-31 05:12:00,50.0,48.0,29.86,WNW,286,6.0,10.0,94,0.00,,,0.00,,2013-03-31 12:12:00,
2013-03-31 05:22:00,51.0,50.0,29.86,West,265,5.0,11.0,95,0.00,,,0.00,,2013-03-31 12:22:00,
2013-03-31 05:32:00,51.0,50.0,29.86,West,265,5.0,11.0,95,0.00,,,0.00,,2013-03-31 12:32:00,
2013-03-31 05:42:00,51.0,50.0,29.86,West,265,5.0,11.0,95,0.00,,,0.00,,2013-03-31 12:42:00,
2013-03-31 05:52:00,51.0,50.0,29.86,West,259,2.0,7.0,95,0.00,,,0.00,,2013-03-31 12:52:00,
2013-03-31 06:01:00,50.0,49.0,29.86,North,0,0.0,4.0,95,0.00,,,0.00,,2013-03-31 13:01:00,
2013-03-31 06:12:00,50.0,49.0,29.86,North,0,0.0,4.0,95,0.00,,,0.00,,2013-03-31 13:12:00,
2013-03-31 06:21:00,51.0,50.0,29.86,WSW,246,3.0,6.0,95,0.00,,,0.00,,2013-03-31 13:21:00,
2013-03-31 06:32:00,51.0,50.0,29.86,WSW,246,3.0,6.0,95,0.00,,,0.00,,2013-03-31 13:32:00,
2013-03-31 06:41:00,51.0,50.0,29.86,WSW,246,3.0,6.0,95,0.00,,,0.00,,2013-03-31 13:41:00,
2013-03-31 06:52:00,51.0,50.0,29.87,WNW,296,5.0,6.0,95,0.00,,,0.00,,2013-03-31 13:52:00,
2013-03-31 07:01:00,51.0,50.0,29.88,SSW,196,1.0,6.0,95,0.00,,,0.00,,2013-03-31 14:01:00,
2013-03-31 07:11:00,51.0,50.0,29.88,SSW,196,1.0,6.0,95,0.00,,,0.00,,2013-03-31 14:11:00,
2013-03-31 07:21:00,51.0,50.0,29.88,SSW,194,2.0,5.0,95,0.00,,,0.00,,2013-03-31 14:21:00,
2013-03-31 07:32:00,51.0,50.0,29.88,SSW,194,2.0,5.0,95,0.00,,,0.00,,2013-03-31 14:32:00,
2013-03-31 07:42:00,51.0,50.0,29.88,SSW,194,2.0,5.0,95,0.00,,,0.00,,2013-03-31 14:42:00,
2013-03-31 07:52:00,50.0,49.0,29.88,North,0,0.0,0.0,95,0.00,,,0.00,,2013-03-31 14:52:00,
2013-03-31 08:01:00,50.0,49.0,29.88,North,0,0.0,1.0,96,0.00,,,0.00,,2013-03-31 15:01:00,
2013-03-31 08:12:00,50.0,49.0,29.88,North,0,0.0,1.0,96,0.00,,,0.00,,2013-03-31 15:12:00,
2013-03-31 08:21:00,50.0,49.0,29.89,South,170,4.0,8.0,96,0.00,,,0.00,,2013-03-31 15:21:00,
2013-03-31 08:33:00,50.0,49.0,29.89,South,170,4.0,8.0,96,0.00,,,0.00,,2013-03-31 15:33:00,
2013-03-31 08:42:00,50.0,49.0,29.89,South,170,4.0,8.0,96,0.00,,,0.00,,2013-03-31 15:42:00,
2013-03-31 08:53:00,51.0,50.0,29.89,North,0,0.0,3.0,96,0.00,,,0.00,,2013-03-31 15:53:00,
2013-03-31 09:02:00,51.0,50.0,29.89,West,259,6.0,7.0,96,0.00,,,0.00,,2013-03-31 16:02:00,
2013-03-31 09:13:00,51.0,50.0,29.89,West,259,6.0,7.0,96,0.00,,,0.00,,2013-03-31 16:13:00,
2013-03-31 09:22:00,51.0,50.0,29.89,North,0,0.0,0.0,96,0.00,,,0.00,,2013-03-31 16:22:00,
2013-03-31 09:32:00,51.0,50.0,29.89,North,0,0.0,0.0,96,0.00,,,0.00,,2013-03-31 16:32:00,
2013-03-31 09:42:00,51.0,50.0,29.89,North,0,0.0,0.0,96,0.00,,,0.00,,2013-03-31 16:42:00,
2013-03-31 09:53:00,52.0,51.0,29.90,SW,233,1.0,4.0,96,0.00,,,0.00,,2013-03-31 16:53:00,
2013-03-31 10:02:00,51.0,50.0,29.90,South,175,2.0,6.0,96,0.00,,,0.00,,2013-03-31 17:02:00,
2013-03-31 10:12:00,51.0,50.0,29.90,South,175,2.0,6.0,96,0.00,,,0.00,,2013-03-31 17:12:00,
2013-03-31 10:22:00,51.0,50.0,29.91,South,172,1.0,5.0,96,0.00,,,0.00,,2013-03-31 17:22:00,
2013-03-31 10:32:00,51.0,50.0,29.91,South,172,1.0,5.0,96,0.00,,,0.00,,2013-03-31 17:32:00,
2013-03-31 10:42:00,51.0,50.0,29.91,South,172,1.0,5.0,96,0.00,,,0.00,,2013-03-31 17:42:00,
2013-03-31 10:52:00,52.0,50.0,29.91,North,0,0.0,3.0,94,0.00,,,0.00,,2013-03-31 17:52:00,
2013-03-31 11:01:00,52.0,51.0,29.91,North,0,0.0,6.0,96,0.00,,,0.00,,2013-03-31 18:01:00,
2013-03-31 11:12:00,52.0,51.0,29.91,North,0,0.0,6.0,96,0.00,,,0.00,,2013-03-31 18:12:00,
2013-03-31 11:21:00,52.0,51.0,29.92,SSE,167,4.0,7.0,95,0.00,,,0.00,,2013-03-31 18:21:00,
2013-03-31 11:32:00,52.0,51.0,29.92,SSE,167,4.0,7.0,95,0.00,,,0.00,,2013-03-31 18:32:00,
2013-03-31 11:41:00,52.0,51.0,29.92,SSE,167,4.0,7.0,95,0.00,,,0.00,,2013-03-31 18:41:00,
2013-03-31 11:53:00,53.0,51.0,29.91,North,0,0.0,5.0,92,0.00,,,0.00,,2013-03-31 18:53:00,
2013-03-31 12:02:00,54.0,51.0,29.92,North,0,0.0,9.0,91,0.00,,,0.00,,2013-03-31 19:02:00,
2013-03-31 12:12:00,54.0,51.0,29.92,North,0,0.0,9.0,91,0.00,,,0.00,,2013-03-31 19:12:00,
2013-03-31 12:21:00,55.0,52.0,29.92,South,170,5.0,10.0,90,0.00,,,0.00,,2013-03-31 19:21:00,
2013-03-31 12:32:00,55.0,52.0,29.92,South,170,5.0,10.0,90,0.00,,,0.00,,2013-03-31 19:32:00,
2013-03-31 12:42:00,55.0,52.0,29.92,South,170,5.0,10.0,90,0.00,,,0.00,,2013-03-31 19:42:00,
2013-03-31 12:53:00,55.0,52.0,29.92,South,171,3.0,11.0,90,0.00,,,0.00,,2013-03-31 19:53:00,
2013-03-31 13:02:00,53.0,51.0,29.91,SSE,162,6.0,11.0,93,0.00,,,0.00,,2013-03-31 20:02:00,
2013-03-31 13:12:00,53.0,51.0,29.91,SSE,162,6.0,11.0,93,0.00,,,0.00,,2013-03-31 20:12:00,
2013-03-31 13:21:00,53.0,52.0,29.91,South,177,7.0,12.0,95,0.00,,,0.00,,2013-03-31 20:21:00,
2013-03-31 13:32:00,53.0,52.0,29.91,South,177,7.0,12.0,95,0.00,,,0.00,,2013-03-31 20:32:00,
2013-03-31 13:42:00,53.0,52.0,29.91,South,177,7.0,12.0,95,0.00,,,0.00,,2013-03-31 20:42:00,
2013-03-31 13:52:00,53.0,52.0,29.91,SSE,167,5.0,11.0,96,0.00,,,0.00,,2013-03-31 20:52:00,
2013-03-31 14:02:00,52.0,51.0,29.90,South,179,5.0,9.0,95,0.00,,,0.00,,2013-03-31 21:02:00,
2013-03-31 14:12:00,52.0,51.0,29.90,South,179,5.0,9.0,95,0.00,,,0.00,,2013-03-31 21:12:00,
2013-03-31 14:21:00,53.0,52.0,29.89,South,181,6.0,10.0,96,0.00,,,0.00,,2013-03-31 21:21:00,
2013-03-31 14:33:00,53.0,52.0,29.89,South,181,6.0,10.0,96,0.00,,,0.00,,2013-03-31 21:33:00,
2013-03-31 14:42:00,53.0,52.0,29.89,South,181,6.0,10.0,96,0.00,,,0.00,,2013-03-31 21:42:00,
2013-03-31 14:53:00,52.0,51.0,29.88,SSE,165,9.0,15.0,96,0.01,,,0.01,,2013-03-31 21:53:00,
2013-03-31 15:02:00,52.0,51.0,29.88,SSE,160,9.0,13.0,96,0.01,,,0.01,,2013-03-31 22:02:00,
2013-03-31 15:13:00,52.0,51.0,29.88,SSE,160,9.0,13.0,96,0.01,,,0.01,,2013-03-31 22:13:00,
2013-03-31 15:23:00,52.0,51.0,29.87,South,171,8.0,12.0,96,0.01,,,0.01,,2013-03-31 22:23:00,
2013-03-31 15:32:00,52.0,51.0,29.87,South,171,8.0,12.0,96,0.01,,,0.01,,2013-03-31 22:32:00,
2013-03-31 15:42:00,52.0,51.0,29.87,South,171,8.0,12.0,96,0.01,,,0.01,,2013-03-31 22:42:00,
2013-03-31 15:53:00,53.0,52.0,29.88,SSE,154,6.0,12.0,96,0.01,,,0.02,,2013-03-31 22:53:00,
2013-03-31 16:02:00,53.0,52.0,29.86,SSE,167,8.0,12.0,96,0.01,,,0.02,,2013-03-31 23:02:00,
2013-03-31 16:12:00,53.0,52.0,29.86,SSE,167,8.0,12.0,96,0.01,,,0.02,,2013-03-31 23:12:00,
2013-03-31 16:21:00,53.0,52.0,29.86,South,181,9.0,16.0,96,0.01,,,0.02,,2013-03-31 23:21:00,
2013-03-31 16:32:00,53.0,52.0,29.86,South,181,9.0,16.0,96,0.01,,,0.02,,2013-03-31 23:32:00,
2013-03-31 16:41:00,53.0,52.0,29.86,South,181,9.0,16.0,96,0.01,,,0.02,,2013-03-31 23:41:00,
2013-03-31 16:53:00,52.0,51.0,29.85,South,180,7.0,14.0,96,0.00,,,0.02,,2013-03-31 23:53:00,
2013-03-31 17:01:00,52.0,51.0,29.85,South,185,7.0,16.0,96,0.00,,,0.02,,2013-04-01 00:01:00,
2013-03-31 17:12:00,52.0,51.0,29.85,South,185,7.0,16.0,96,0.00,,,0.02,,2013-04-01 00:12:00,
2013-03-31 17:22:00,52.0,51.0,29.85,South,187,7.0,15.0,95,0.00,,,0.02,,2013-04-01 00:22:00,
2013-03-31 17:32:00,52.0,51.0,29.85,South,187,7.0,15.0,95,0.00,,,0.02,,2013-04-01 00:32:00,
2013-03-31 17:42:00,52.0,51.0,29.85,South,187,7.0,15.0,95,0.00,,,0.02,,2013-04-01 00:42:00,
2013-03-31 17:52:00,51.0,50.0,29.85,SSW,201,9.0,15.0,96,0.00,,,0.02,,2013-04-01 00:52:00,
2013-03-31 18:01:00,51.0,50.0,29.85,South,181,4.0,14.0,96,0.00,,,0.02,,2013-04-01 01:01:00,
2013-03-31 18:12:00,51.0,50.0,29.85,South,181,4.0,14.0,96,0.00,,,0.02,,2013-04-01 01:12:00,
2013-03-31 18:22:00,51.0,50.0,29.85,SSW,197,11.0,13.0,96,0.00,,,0.02,,2013-04-01 01:22:00,
2013-03-31 18:32:00,51.0,50.0,29.85,SSW,197,11.0,13.0,96,0.00,,,0.02,,2013-04-01 01:32:00,
2013-03-31 18:42:00,51.0,50.0,29.85,SSW,197,11.0,13.0,96,0.00,,,0.02,,2013-04-01 01:42:00,
2013-03-31 18:52:00,51.0,50.0,29.85,South,181,5.0,12.0,96,0.00,,,0.02,,2013-04-01 01:52:00,
2013-03-31 19:02:00,50.0,49.0,29.86,SSW,207,13.0,16.0,96,0.00,,,0.02,,2013-04-01 02:02:00,
2013-03-31 19:12:00,50.0,49.0,29.86,SSW,207,13.0,16.0,96,0.00,,,0.02,,2013-04-01 02:12:00,
2013-03-31 19:21:00,49.0,48.0,29.86,SSW,211,12.0,18.0,96,0.00,,,0.02,,2013-04-01 02:21:00,
2013-03-31 19:32:00,49.0,48.0,29.86,SSW,211,12.0,18.0,96,0.00,,,0.02,,2013-04-01 02:32:00,
2013-03-31 19:42:00,49.0,48.0,29.86,SSW,211,12.0,18.0,96,0.00,,,0.02,,2013-04-01 02:42:00,
2013-03-31 19:52:00,49.0,48.0,29.86,SSW,211,14.0,20.0,96,0.00,,,0.02,,2013-04-01 02:52:00,
2013-03-31 20:03:00,-999.0,-99.9,29.86,SSW,201,13.0,20.0,-999,0.00,,,0.02,,2013-04-01 03:03:00,
2013-03-31 20:12:00,-999.0,-99.9,29.86,SSW,201,13.0,20.0,-999,0.00,,,0.02,,2013-04-01 03:12:00,
2013-03-31 20:23:00,-999.0,-99.9,29.87,SSW,207,9.0,15.0,-999,0.00,,,0.02,,2013-04-01 03:23:00,
2013-03-31 20:35:00,-999.0,-99.9,29.87,SSW,207,9.0,15.0,-999,0.00,,,0.02,,2013-04-01 03:35:00,
2013-03-31 20:43:00,-999.0,-99.9,29.87,SSW,207,9.0,15.0,-999,0.00,,,0.02,,2013-04-01 03:43:00,
2013-03-31 20:53:00,48.0,47.0,29.88,SSW,210,7.0,15.0,95,0.00,,,0.02,,2013-04-01 03:53:00,
2013-03-31 21:02:00,48.0,47.0,29.88,WSW,238,9.0,13.0,96,0.00,,,0.02,,2013-04-01 04:02:00,
2013-03-31 21:13:00,48.0,47.0,29.88,WSW,238,9.0,13.0,96,0.00,,,0.02,,2013-04-01 04:13:00,
2013-03-31 21:23:00,47.0,46.0,29.89,WSW,257,13.0,19.0,96,0.00,,,0.02,,2013-04-01 04:23:00,
2013-03-31 21:32:00,47.0,46.0,29.89,WSW,257,13.0,19.0,96,0.00,,,0.02,,2013-04-01 04:32:00,
2013-03-31 21:42:00,47.0,46.0,29.89,WSW,257,13.0,19.0,96,0.00,,,0.02,,2013-04-01 04:42:00,
2013-03-31 21:53:00,48.0,47.0,29.90,WSW,239,5.0,12.0,96,0.00,,,0.02,,2013-04-01 04:53:00,
2013-03-31 22:02:00,47.0,46.0,29.90,WSW,256,12.0,19.0,96,0.00,,,0.02,,2013-04-01 05:02:00,
2013-03-31 22:12:00,47.0,46.0,29.90,WSW,256,12.0,19.0,96,0.00,,,0.02,,2013-04-01 05:12:00,
2013-03-31 22:21:00,48.0,47.0,29.90,WSW,258,7.0,19.0,96,0.00,,,0.02,,2013-04-01 05:21:00,
2013-03-31 22:32:00,48.0,47.0,29.90,WSW,258,7.0,19.0,96,0.00,,,0.02,,2013-04-01 05:32:00,
2013-03-31 22:42:00,48.0,47.0,29.90,WSW,258,7.0,19.0,96,0.00,,,0.02,,2013-04-01 05:42:00,
2013-03-31 22:52:00,48.0,47.0,29.90,NW,307,2.0,11.0,96,0.00,,,0.02,,2013-04-01 05:52:00,
2013-03-31 23:01:00,48.0,47.0,29.90,North,0,0.0,10.0,96,0.00,,,0.02,,2013-04-01 06:01:00,
2013-03-31 23:12:00,48.0,47.0,29.90,North,0,0.0,10.0,96,0.00,,,0.02,,2013-04-01 06:12:00,
2013-03-31 23:22:00,48.0,47.0,29.90,WNW,286,6.0,11.0,97,0.00,,,0.02,,2013-04-01 06:22:00,
2013-03-31 23:33:00,48.0,47.0,29.90,WNW,286,6.0,11.0,97,0.00,,,0.02,,2013-04-01 06:33:00,
2013-03-31 23:42:00,48.0,47.0,29.90,WNW,286,6.0,11.0,97,0.00,,,0.02,,2013-04-01 06:42:00,
2013-03-31 23:52:00,48.0,47.0,29.90,North,0,0.0,7.0,96,0.00,,,0.02,,2013-04-01 06:52:00,